sensor_id;sensor_type;location;lat;lon;timestamp;pressure;altitude;pressure_sealevel;temperature;humidity
11888;BME280;6003;42.756;23.130;2023-04-24T00:02:16;154530.44;;;8.24;91.91
11888;BME280;6003;42.756;23.130;2023-04-24T00:04:44;154540.97;;;8.28;91.42
11888;BME280;6003;42.756;23.130;2023-04-24T00:07:11;154562.09;;;8.36;89.47
11888;BME280;6003;42.756;23.130;2023-04-24T00:09:39;154583.28;;;8.44;89.17
11888;BME280;6003;42.756;23.130;2023-04-24T00:12:06;154595.16;;;8.49;88.36
11888;BME280;6003;42.756;23.130;2023-04-24T00:14:33;154607.00;;;8.53;87.68
11888;BME280;6003;42.756;23.130;2023-04-24T00:17:00;154618.91;;;8.58;85.88
11888;BME280;6003;42.756;23.130;2023-04-24T00:19:27;154636.03;;;8.65;85.56
11888;BME280;6003;42.756;23.130;2023-04-24T00:21:56;154653.19;;;8.71;87.52
11888;BME280;6003;42.756;23.130;2023-04-24T00:24:22;154661.09;;;8.74;87.85
11888;BME280;6003;42.756;23.130;2023-04-24T00:26:49;154675.63;;;8.80;88.64
11888;BME280;6003;42.756;23.130;2023-04-24T00:29:16;154665.09;;;8.76;90.23
11888;BME280;6003;42.756;23.130;2023-04-24T00:31:43;154680.94;;;8.82;92.71
11888;BME280;6003;42.756;23.130;2023-04-24T00:34:10;154692.81;;;8.87;93.44
11888;BME280;6003;42.756;23.130;2023-04-24T00:36:37;154702.06;;;8.90;93.29
11888;BME280;6003;42.756;23.130;2023-04-24T00:39:05;154709.97;;;8.93;93.54
11888;BME280;6003;42.756;23.130;2023-04-24T00:41:34;154725.81;;;8.99;92.47
11888;BME280;6003;42.756;23.130;2023-04-24T00:44:01;154702.06;;;8.90;94.39
11888;BME280;6003;42.756;23.130;2023-04-24T00:46:28;154717.88;;;8.96;95.59
11888;BME280;6003;42.756;23.130;2023-04-24T00:48:56;154737.72;;;9.04;96.43
11888;BME280;6003;42.756;23.130;2023-04-24T00:51:22;154753.53;;;9.10;95.37
11888;BME280;6003;42.756;23.130;2023-04-24T00:53:49;154737.72;;;9.04;95.07
11888;BME280;6003;42.756;23.130;2023-04-24T00:56:19;154741.63;;;9.06;94.02
11888;BME280;6003;42.756;23.130;2023-04-24T00:58:47;154748.25;;;9.08;93.58
11888;BME280;6003;42.756;23.130;2023-04-24T01:01:14;154744.31;;;9.07;91.79
11888;BME280;6003;42.756;23.130;2023-04-24T01:03:41;154741.63;;;9.06;90.50
11888;BME280;6003;42.756;23.130;2023-04-24T01:06:09;154733.72;;;9.02;88.64
11888;BME280;6003;42.756;23.130;2023-04-24T01:08:37;154700.75;;;8.90;87.67
11888;BME280;6003;42.756;23.130;2023-04-24T01:11:05;154728.44;;;9.00;87.16
11888;BME280;6003;42.756;23.130;2023-04-24T01:13:33;154731.09;;;9.01;85.99
11888;BME280;6003;42.756;23.130;2023-04-24T01:16:00;154727.13;;;9.00;86.16
11888;BME280;6003;42.756;23.130;2023-04-24T01:18:27;154715.25;;;8.95;86.44
11888;BME280;6003;42.756;23.130;2023-04-24T01:20:57;154707.34;;;8.92;86.39
11888;BME280;6003;42.756;23.130;2023-04-24T01:23:26;154695.44;;;8.88;86.65
11888;BME280;6003;42.756;23.130;2023-04-24T01:25:53;154686.22;;;8.84;86.65
11888;BME280;6003;42.756;23.130;2023-04-24T01:28:20;154675.63;;;8.80;86.62
11888;BME280;6003;42.756;23.130;2023-04-24T01:30:47;154663.78;;;8.75;86.26
11888;BME280;6003;42.756;23.130;2023-04-24T01:33:14;154643.97;;;8.68;87.30
11888;BME280;6003;42.756;23.130;2023-04-24T01:35:42;154618.91;;;8.58;87.47
11888;BME280;6003;42.756;23.130;2023-04-24T01:38:09;154607.00;;;8.53;87.38
11888;BME280;6003;42.756;23.130;2023-04-24T01:40:38;154589.88;;;8.47;88.05
11888;BME280;6003;42.756;23.130;2023-04-24T01:43:05;154585.88;;;8.45;87.96
11888;BME280;6003;42.756;23.130;2023-04-24T01:45:33;154572.72;;;8.40;88.43
11888;BME280;6003;42.756;23.130;2023-04-24T01:48:00;154562.09;;;8.36;88.82
11888;BME280;6003;42.756;23.130;2023-04-24T01:50:27;154527.78;;;8.23;88.84
11888;BME280;6003;42.756;23.130;2023-04-24T01:52:53;154537.03;;;8.26;88.20
11888;BME280;6003;42.756;23.130;2023-04-24T01:55:20;154526.47;;;8.22;89.39
11888;BME280;6003;42.756;23.130;2023-04-24T01:57:49;154537.03;;;8.26;88.40
11888;BME280;6003;42.756;23.130;2023-04-24T02:03:21;154469.78;;;8.00;88.40
11888;BME280;6003;42.756;23.130;2023-04-24T02:05:48;154492.19;;;8.09;87.60
11888;BME280;6003;42.756;23.130;2023-04-24T02:08:15;154494.81;;;8.10;86.97
11888;BME280;6003;42.756;23.130;2023-04-24T02:10:42;154525.16;;;8.22;84.77
11888;BME280;6003;42.756;23.130;2023-04-24T02:13:11;154533.06;;;8.25;83.72
11888;BME280;6003;42.756;23.130;2023-04-24T02:15:37;154521.22;;;8.20;84.56
11888;BME280;6003;42.756;23.130;2023-04-24T02:18:04;154464.47;;;7.98;85.88
11888;BME280;6003;42.756;23.130;2023-04-24T02:20:32;154472.41;;;8.01;85.33
11888;BME280;6003;42.756;23.130;2023-04-24T02:22:59;154476.38;;;8.03;85.09
11888;BME280;6003;42.756;23.130;2023-04-24T02:25:26;154475.00;;;8.02;84.15
11888;BME280;6003;42.756;23.130;2023-04-24T02:27:53;154469.78;;;8.00;84.24
11888;BME280;6003;42.756;23.130;2023-04-24T02:30:41;154453.94;;;7.94;84.81
11888;BME280;6003;42.756;23.130;2023-04-24T02:33:08;154446.00;;;7.91;84.74
11888;BME280;6003;42.756;23.130;2023-04-24T02:35:34;154446.00;;;7.91;84.16
11888;BME280;6003;42.756;23.130;2023-04-24T02:38:01;154438.06;;;7.88;84.05
11888;BME280;6003;42.756;23.130;2023-04-24T02:40:28;154447.34;;;7.91;83.79
11888;BME280;6003;42.756;23.130;2023-04-24T02:42:55;154436.78;;;7.87;84.21
11888;BME280;6003;42.756;23.130;2023-04-24T02:45:22;154428.84;;;7.84;83.68
11888;BME280;6003;42.756;23.130;2023-04-24T02:47:50;154439.44;;;7.88;83.86
11888;BME280;6003;42.756;23.130;2023-04-24T02:50:17;154428.84;;;7.84;84.10
11888;BME280;6003;42.756;23.130;2023-04-24T02:52:44;154410.41;;;7.77;84.85
11888;BME280;6003;42.756;23.130;2023-04-24T02:55:11;154415.66;;;7.79;84.73
11888;BME280;6003;42.756;23.130;2023-04-24T02:57:38;154424.94;;;7.83;84.60
11888;BME280;6003;42.756;23.130;2023-04-24T03:00:06;154426.25;;;7.83;84.57
11888;BME280;6003;42.756;23.130;2023-04-24T03:02:34;154413.03;;;7.78;85.19
11888;BME280;6003;42.756;23.130;2023-04-24T03:05:02;154360.28;;;7.58;85.86
11888;BME280;6003;42.756;23.130;2023-04-24T03:07:29;154329.97;;;7.46;86.60
11888;BME280;6003;42.756;23.130;2023-04-24T03:09:56;154361.59;;;7.58;85.79
11888;BME280;6003;42.756;23.130;2023-04-24T03:12:23;154306.25;;;7.37;87.09
11888;BME280;6003;42.756;23.130;2023-04-24T03:14:50;154286.47;;;7.29;87.30
11888;BME280;6003;42.756;23.130;2023-04-24T03:17:17;154300.97;;;7.35;88.62
11888;BME280;6003;42.756;23.130;2023-04-24T03:19:44;154329.97;;;7.46;87.34
11888;BME280;6003;42.756;23.130;2023-04-24T03:22:12;154343.16;;;7.51;87.74
11888;BME280;6003;42.756;23.130;2023-04-24T03:24:39;154349.72;;;7.54;87.26
11888;BME280;6003;42.756;23.130;2023-04-24T03:27:06;154362.91;;;7.59;88.25
11888;BME280;6003;42.756;23.130;2023-04-24T03:29:33;154385.34;;;7.67;85.91
11888;BME280;6003;42.756;23.130;2023-04-24T03:32:00;154406.44;;;7.76;86.31
11888;BME280;6003;42.756;23.130;2023-04-24T03:34:27;154435.47;;;7.87;85.53
11888;BME280;6003;42.756;23.130;2023-04-24T03:36:53;154453.94;;;7.94;86.54
11888;BME280;6003;42.756;23.130;2023-04-24T03:39:21;154472.41;;;8.01;84.35
11888;BME280;6003;42.756;23.130;2023-04-24T03:41:49;154485.59;;;8.06;86.37
11888;BME280;6003;42.756;23.130;2023-04-24T03:44:17;154473.69;;;8.02;85.91
11888;BME280;6003;42.756;23.130;2023-04-24T03:46:43;154497.44;;;8.11;83.31
11888;BME280;6003;42.756;23.130;2023-04-24T03:49:10;154531.75;;;8.24;82.99
11888;BME280;6003;42.756;23.130;2023-04-24T03:51:37;154562.09;;;8.36;83.09
11888;BME280;6003;42.756;23.130;2023-04-24T03:54:04;154589.88;;;8.47;82.38
11888;BME280;6003;42.756;23.130;2023-04-24T03:56:32;154633.44;;;8.64;82.75
11888;BME280;6003;42.756;23.130;2023-04-24T03:58:59;154723.19;;;8.98;82.65
11888;BME280;6003;42.756;23.130;2023-04-24T04:01:25;154797.13;;;9.27;81.27
11888;BME280;6003;42.756;23.130;2023-04-24T04:03:53;154840.69;;;9.44;80.38
11888;BME280;6003;42.756;23.130;2023-04-24T04:06:20;154867.09;;;9.54;78.35
11888;BME280;6003;42.756;23.130;2023-04-24T04:08:47;154897.47;;;9.66;78.52
11888;BME280;6003;42.756;23.130;2023-04-24T04:11:14;154929.19;;;9.78;78.51
11888;BME280;6003;42.756;23.130;2023-04-24T04:13:42;154960.88;;;9.90;77.97
11888;BME280;6003;42.756;23.130;2023-04-24T04:16:09;154976.72;;;9.97;77.76
11888;BME280;6003;42.756;23.130;2023-04-24T04:18:35;154999.19;;;10.05;77.21
11888;BME280;6003;42.756;23.130;2023-04-24T04:21:03;155017.66;;;10.12;76.70
11888;BME280;6003;42.756;23.130;2023-04-24T04:23:30;155050.72;;;10.25;77.57
11888;BME280;6003;42.756;23.130;2023-04-24T04:25:57;155053.34;;;10.26;76.21
11888;BME280;6003;42.756;23.130;2023-04-24T04:28:24;155054.72;;;10.27;76.79
11888;BME280;6003;42.756;23.130;2023-04-24T04:30:53;155040.13;;;10.21;77.09
11888;BME280;6003;42.756;23.130;2023-04-24T04:33:20;155045.44;;;10.23;76.62
11888;BME280;6003;42.756;23.130;2023-04-24T04:35:47;155064.00;;;10.30;76.90
11888;BME280;6003;42.756;23.130;2023-04-24T04:38:15;155094.41;;;10.42;77.71
11888;BME280;6003;42.756;23.130;2023-04-24T04:40:42;155124.78;;;10.54;78.25
11888;BME280;6003;42.756;23.130;2023-04-24T04:43:09;155171.06;;;10.72;78.28
11888;BME280;6003;42.756;23.130;2023-04-24T04:45:36;155217.31;;;10.90;78.82
11888;BME280;6003;42.756;23.130;2023-04-24T04:48:05;155257.00;;;11.05;77.83
11888;BME280;6003;42.756;23.130;2023-04-24T04:50:33;155257.00;;;11.05;75.97
11888;BME280;6003;42.756;23.130;2023-04-24T04:52:59;155241.09;;;10.99;75.58
11888;BME280;6003;42.756;23.130;2023-04-24T04:55:26;155222.63;;;10.92;75.64
11888;BME280;6003;42.756;23.130;2023-04-24T04:57:53;155202.75;;;10.84;75.33
11888;BME280;6003;42.756;23.130;2023-04-24T05:00:21;155208.06;;;10.86;75.38
11888;BME280;6003;42.756;23.130;2023-04-24T05:02:49;155220.00;;;10.91;75.91
11888;BME280;6003;42.756;23.130;2023-04-24T05:05:18;155242.47;;;10.99;75.88
11888;BME280;6003;42.756;23.130;2023-04-24T05:07:45;155266.25;;;11.09;75.50
11888;BME280;6003;42.756;23.130;2023-04-24T05:10:12;155280.81;;;11.14;73.46
11888;BME280;6003;42.756;23.130;2023-04-24T05:12:39;155320.47;;;11.29;72.68
11888;BME280;6003;42.756;23.130;2023-04-24T05:15:06;155340.31;;;11.37;71.76
11888;BME280;6003;42.756;23.130;2023-04-24T05:17:33;155368.09;;;11.48;72.27
11888;BME280;6003;42.756;23.130;2023-04-24T05:20:00;155426.25;;;11.70;70.19
11888;BME280;6003;42.756;23.130;2023-04-24T05:22:32;155518.97;;;12.06;68.42
11888;BME280;6003;42.756;23.130;2023-04-24T05:24:59;155635.41;;;12.51;66.63
11888;BME280;6003;42.756;23.130;2023-04-24T05:27:26;155697.66;;;12.75;67.93
11888;BME280;6003;42.756;23.130;2023-04-24T05:29:53;155718.84;;;12.83;64.15
11888;BME280;6003;42.756;23.130;2023-04-24T05:32:20;155781.06;;;13.07;63.13
11888;BME280;6003;42.756;23.130;2023-04-24T05:34:47;155786.38;;;13.09;65.46
11888;BME280;6003;42.756;23.130;2023-04-24T05:37:14;155887.09;;;13.48;62.42
11888;BME280;6003;42.756;23.130;2023-04-24T05:39:42;155914.91;;;13.59;62.22
11888;BME280;6003;42.756;23.130;2023-04-24T05:42:09;155885.75;;;13.48;60.98
11888;BME280;6003;42.756;23.130;2023-04-24T05:44:36;155799.59;;;13.15;61.40
11888;BME280;6003;42.756;23.130;2023-04-24T05:47:03;155916.22;;;13.60;61.60
11888;BME280;6003;42.756;23.130;2023-04-24T05:49:30;156011.66;;;13.96;63.25
11888;BME280;6003;42.756;23.130;2023-04-24T05:51:57;156071.28;;;14.19;61.46
11888;BME280;6003;42.756;23.130;2023-04-24T05:54:24;156215.84;;;14.75;59.96
11888;BME280;6003;42.756;23.130;2023-04-24T05:56:52;156367.06;;;15.33;57.94
11888;BME280;6003;42.756;23.130;2023-04-24T05:59:19;156388.25;;;15.42;57.59
11888;BME280;6003;42.756;23.130;2023-04-24T06:01:46;156453.28;;;15.67;55.22
11888;BME280;6003;42.756;23.130;2023-04-24T06:04:13;156287.47;;;15.03;58.04
11888;BME280;6003;42.756;23.130;2023-04-24T06:06:40;156396.22;;;15.45;58.38
11888;BME280;6003;42.756;23.130;2023-04-24T06:09:07;156321.91;;;15.16;57.59
11888;BME280;6003;42.756;23.130;2023-04-24T06:11:34;156404.22;;;15.48;57.84
11888;BME280;6003;42.756;23.130;2023-04-24T06:14:02;156343.16;;;15.24;58.40
11888;BME280;6003;42.756;23.130;2023-04-24T06:16:29;156247.69;;;14.87;59.70
11888;BME280;6003;42.756;23.130;2023-04-24T06:18:56;156363.06;;;15.32;60.42
11888;BME280;6003;42.756;23.130;2023-04-24T06:21:23;156449.31;;;15.65;57.80
11888;BME280;6003;42.756;23.130;2023-04-24T06:23:51;156367.06;;;15.33;60.56
11888;BME280;6003;42.756;23.130;2023-04-24T06:26:17;156327.25;;;15.18;61.00
11888;BME280;6003;42.756;23.130;2023-04-24T06:28:44;156397.56;;;15.45;58.39
11888;BME280;6003;42.756;23.130;2023-04-24T06:31:12;156160.16;;;14.54;61.28
11888;BME280;6003;42.756;23.130;2023-04-24T06:33:39;156142.84;;;14.47;63.81
11888;BME280;6003;42.756;23.130;2023-04-24T06:36:06;156250.34;;;14.88;61.19
11888;BME280;6003;42.756;23.130;2023-04-24T06:38:33;156267.56;;;14.95;60.35
11888;BME280;6003;42.756;23.130;2023-04-24T06:41:00;156154.84;;;14.52;61.41
11888;BME280;6003;42.756;23.130;2023-04-24T06:43:28;156162.81;;;14.55;63.43
11888;BME280;6003;42.756;23.130;2023-04-24T06:45:55;156341.84;;;15.24;61.62
11888;BME280;6003;42.756;23.130;2023-04-24T06:48:24;156386.94;;;15.41;60.48
11888;BME280;6003;42.756;23.130;2023-04-24T06:50:51;156369.69;;;15.34;60.86
11888;BME280;6003;42.756;23.130;2023-04-24T06:53:18;156280.81;;;15.00;61.32
11888;BME280;6003;42.756;23.130;2023-04-24T06:55:45;156201.25;;;14.70;61.87
11888;BME280;6003;42.756;23.130;2023-04-24T06:58:12;156097.78;;;14.30;63.48
11888;BME280;6003;42.756;23.130;2023-04-24T07:00:40;156186.66;;;14.64;63.17
11888;BME280;6003;42.756;23.130;2023-04-24T07:03:07;156234.41;;;14.82;61.56
11888;BME280;6003;42.756;23.130;2023-04-24T07:05:35;156286.16;;;15.02;62.92
11888;BME280;6003;42.756;23.130;2023-04-24T07:08:03;156329.94;;;15.19;61.05
11888;BME280;6003;42.756;23.130;2023-04-24T07:10:32;156388.25;;;15.42;61.44
11888;BME280;6003;42.756;23.130;2023-04-24T07:12:59;156372.34;;;15.35;62.09
11888;BME280;6003;42.756;23.130;2023-04-24T07:15:26;156449.31;;;15.65;60.60
11888;BME280;6003;42.756;23.130;2023-04-24T07:17:53;156434.72;;;15.60;60.93
11888;BME280;6003;42.756;23.130;2023-04-24T07:20:20;156497.13;;;15.84;64.29
11888;BME280;6003;42.756;23.130;2023-04-24T07:22:48;156515.69;;;15.91;60.32
11888;BME280;6003;42.756;23.130;2023-04-24T07:25:17;156449.31;;;15.65;61.20
11888;BME280;6003;42.756;23.130;2023-04-24T07:27:44;156478.53;;;15.76;61.89
11888;BME280;6003;42.756;23.130;2023-04-24T07:30:11;156531.66;;;15.97;60.67
11888;BME280;6003;42.756;23.130;2023-04-24T07:32:38;156462.59;;;15.70;62.70
11888;BME280;6003;42.756;23.130;2023-04-24T07:35:05;156478.53;;;15.76;62.11
11888;BME280;6003;42.756;23.130;2023-04-24T07:37:32;156531.66;;;15.97;62.59
11888;BME280;6003;42.756;23.130;2023-04-24T07:40:00;156515.69;;;15.91;61.27
11888;BME280;6003;42.756;23.130;2023-04-24T07:42:29;156507.72;;;15.88;59.99
11888;BME280;6003;42.756;23.130;2023-04-24T07:44:56;156445.31;;;15.64;62.47
11888;BME280;6003;42.756;23.130;2023-04-24T07:47:25;156544.88;;;16.02;61.24
11888;BME280;6003;42.756;23.130;2023-04-24T07:49:52;156588.69;;;16.19;60.70
11888;BME280;6003;42.756;23.130;2023-04-24T07:52:18;156595.34;;;16.21;60.81
11888;BME280;6003;42.756;23.130;2023-04-24T07:54:45;156669.69;;;16.50;60.47
11888;BME280;6003;42.756;23.130;2023-04-24T07:57:13;156745.44;;;16.79;60.35
11888;BME280;6003;42.756;23.130;2023-04-24T07:59:40;156722.78;;;16.70;58.96
11888;BME280;6003;42.756;23.130;2023-04-24T08:02:07;156701.53;;;16.62;62.15
11888;BME280;6003;42.756;23.130;2023-04-24T08:04:35;156566.13;;;16.10;60.75
11888;BME280;6003;42.756;23.130;2023-04-24T08:07:01;156606.00;;;16.26;60.48
11888;BME280;6003;42.756;23.130;2023-04-24T08:09:28;156720.16;;;16.69;62.26
11888;BME280;6003;42.756;23.130;2023-04-24T08:11:55;156815.84;;;17.06;62.88
11888;BME280;6003;42.756;23.130;2023-04-24T08:14:24;156853.03;;;17.21;62.07
11888;BME280;6003;42.756;23.130;2023-04-24T08:16:51;156849.03;;;17.19;61.08
11888;BME280;6003;42.756;23.130;2023-04-24T08:19:19;156948.66;;;17.57;61.91
11888;BME280;6003;42.756;23.130;2023-04-24T08:21:45;157059.03;;;18.00;58.37
11888;BME280;6003;42.756;23.130;2023-04-24T08:24:12;157166.75;;;18.41;59.76
11888;BME280;6003;42.756;23.130;2023-04-24T08:26:39;157186.66;;;18.49;57.15
11888;BME280;6003;42.756;23.130;2023-04-24T08:29:06;156996.53;;;17.76;59.59
11888;BME280;6003;42.756;23.130;2023-04-24T08:31:36;157011.19;;;17.81;58.11
11888;BME280;6003;42.756;23.130;2023-04-24T08:34:03;156959.31;;;17.62;62.87
11888;BME280;6003;42.756;23.130;2023-04-24T08:36:31;157088.28;;;18.11;58.59
11888;BME280;6003;42.756;23.130;2023-04-24T08:38:58;157053.69;;;17.98;58.19
11888;BME280;6003;42.756;23.130;2023-04-24T08:41:27;157057.72;;;17.99;59.27
11888;BME280;6003;42.756;23.130;2023-04-24T08:43:54;157045.72;;;17.95;56.83
11888;BME280;6003;42.756;23.130;2023-04-24T08:46:24;157086.97;;;18.11;57.56
11888;BME280;6003;42.756;23.130;2023-04-24T08:48:52;157001.84;;;17.78;57.15
11888;BME280;6003;42.756;23.130;2023-04-24T08:51:19;156886.22;;;17.33;57.65
11888;BME280;6003;42.756;23.130;2023-04-24T08:53:47;156935.41;;;17.52;58.71
11888;BME280;6003;42.756;23.130;2023-04-24T08:56:14;157001.84;;;17.78;59.21
11888;BME280;6003;42.756;23.130;2023-04-24T08:58:42;156972.63;;;17.67;60.68
11888;BME280;6003;42.756;23.130;2023-04-24T09:01:10;156989.88;;;17.73;57.89
11888;BME280;6003;42.756;23.130;2023-04-24T09:03:38;157116.22;;;18.22;60.82
11888;BME280;6003;42.756;23.130;2023-04-24T09:06:08;157142.75;;;18.32;56.81
11888;BME280;6003;42.756;23.130;2023-04-24T09:08:36;157146.78;;;18.34;55.51
11888;BME280;6003;42.756;23.130;2023-04-24T09:11:03;157090.91;;;18.12;57.35
11888;BME280;6003;42.756;23.130;2023-04-24T09:13:30;157092.28;;;18.13;55.72
11888;BME280;6003;42.756;23.130;2023-04-24T09:15:58;157142.75;;;18.32;57.58
11888;BME280;6003;42.756;23.130;2023-04-24T09:18:26;157270.47;;;18.81;56.93
11888;BME280;6003;42.756;23.130;2023-04-24T09:21:04;157286.47;;;18.87;56.67
11888;BME280;6003;42.756;23.130;2023-04-24T09:23:34;157187.97;;;18.49;56.87
11888;BME280;6003;42.756;23.130;2023-04-24T09:26:03;157247.81;;;18.72;54.14
11888;BME280;6003;42.756;23.130;2023-04-24T09:28:36;157326.34;;;19.03;54.78
11888;BME280;6003;42.756;23.130;2023-04-24T09:31:05;157452.75;;;19.51;55.18
11888;BME280;6003;42.756;23.130;2023-04-24T09:33:33;157400.84;;;19.31;53.41
11888;BME280;6003;42.756;23.130;2023-04-24T09:36:00;157428.81;;;19.42;53.16
11888;BME280;6003;42.756;23.130;2023-04-24T09:38:31;157502.00;;;19.70;54.36
11888;BME280;6003;42.756;23.130;2023-04-24T09:41:01;157568.56;;;19.96;53.64
11888;BME280;6003;42.756;23.130;2023-04-24T09:43:29;157645.78;;;20.25;52.61
11888;BME280;6003;42.756;23.130;2023-04-24T09:45:58;157675.03;;;20.37;50.38
11888;BME280;6003;42.756;23.130;2023-04-24T09:48:32;157661.75;;;20.32;54.82
11888;BME280;6003;42.756;23.130;2023-04-24T09:51:01;157747.00;;;20.64;51.06
11888;BME280;6003;42.756;23.130;2023-04-24T09:53:30;157800.28;;;20.85;51.90
11888;BME280;6003;42.756;23.130;2023-04-24T09:56:07;157688.38;;;20.42;50.61
11888;BME280;6003;42.756;23.130;2023-04-24T09:58:35;157633.78;;;20.21;50.50
11888;BME280;6003;42.756;23.130;2023-04-24T10:01:03;157703.00;;;20.47;53.67
11888;BME280;6003;42.756;23.130;2023-04-24T10:03:31;157792.28;;;20.82;47.37
11888;BME280;6003;42.756;23.130;2023-04-24T10:05:58;157809.59;;;20.88;49.25
11888;BME280;6003;42.756;23.130;2023-04-24T10:08:26;157826.94;;;20.95;50.90
11888;BME280;6003;42.756;23.130;2023-04-24T10:10:53;157810.97;;;20.89;49.00
11888;BME280;6003;42.756;23.130;2023-04-24T10:13:22;157841.59;;;21.01;50.49
11888;BME280;6003;42.756;23.130;2023-04-24T10:15:50;157861.53;;;21.08;48.88
11888;BME280;6003;42.756;23.130;2023-04-24T10:18:17;157850.91;;;21.04;47.90
11888;BME280;6003;42.756;23.130;2023-04-24T10:20:47;157841.59;;;21.01;49.94
11888;BME280;6003;42.756;23.130;2023-04-24T10:23:15;157857.56;;;21.07;50.60
11888;BME280;6003;42.756;23.130;2023-04-24T10:25:44;157948.19;;;21.42;50.80
11888;BME280;6003;42.756;23.130;2023-04-24T10:28:12;158002.81;;;21.62;49.99
11888;BME280;6003;42.756;23.130;2023-04-24T10:30:42;157874.88;;;21.13;44.00
11888;BME280;6003;42.756;23.130;2023-04-24T10:33:10;157824.25;;;20.94;45.73
11888;BME280;6003;42.756;23.130;2023-04-24T10:35:40;157869.53;;;21.11;45.60
11888;BME280;6003;42.756;23.130;2023-04-24T10:38:12;157874.88;;;21.13;46.98
11888;BME280;6003;42.756;23.130;2023-04-24T10:40:42;157938.88;;;21.38;44.73
11888;BME280;6003;42.756;23.130;2023-04-24T10:43:10;158026.78;;;21.72;48.96
11888;BME280;6003;42.756;23.130;2023-04-24T10:45:38;158170.84;;;22.27;46.75
11888;BME280;6003;42.756;23.130;2023-04-24T10:48:08;158288.13;;;22.72;45.67
11888;BME280;6003;42.756;23.130;2023-04-24T10:50:43;158285.47;;;22.71;44.23
11888;BME280;6003;42.756;23.130;2023-04-24T10:53:15;158213.47;;;22.43;43.08
11888;BME280;6003;42.756;23.130;2023-04-24T10:55:47;158146.78;;;22.18;42.87
11888;BME280;6003;42.756;23.130;2023-04-24T10:58:15;157968.19;;;21.49;44.25
11888;BME280;6003;42.756;23.130;2023-04-24T11:00:44;157793.63;;;20.82;46.06
11888;BME280;6003;42.756;23.130;2023-04-24T11:03:26;157731.03;;;20.58;49.18
11888;BME280;6003;42.756;23.130;2023-04-24T11:05:58;157571.25;;;19.97;51.84
11888;BME280;6003;42.756;23.130;2023-04-24T11:08:27;157506.03;;;19.72;50.74
11888;BME280;6003;42.756;23.130;2023-04-24T11:10:59;157549.94;;;19.89;52.59
11888;BME280;6003;42.756;23.130;2023-04-24T11:16:20;157914.81;;;21.29;51.27
11888;BME280;6003;42.756;23.130;2023-04-24T11:18:52;157989.47;;;21.57;49.71
11888;BME280;6003;42.756;23.130;2023-04-24T11:21:31;158021.50;;;21.70;50.84
11888;BME280;6003;42.756;23.130;2023-04-24T11:23:58;158040.13;;;21.77;49.24
11888;BME280;6003;42.756;23.130;2023-04-24T11:26:25;158120.13;;;22.07;51.22
11888;BME280;6003;42.756;23.130;2023-04-24T11:29:06;158136.09;;;22.14;51.00
11888;BME280;6003;42.756;23.130;2023-04-24T11:31:34;158070.78;;;21.89;47.21
11888;BME280;6003;42.756;23.130;2023-04-24T11:34:08;158032.13;;;21.74;48.75
11888;BME280;6003;42.756;23.130;2023-04-24T11:36:35;158009.47;;;21.65;51.19
11888;BME280;6003;42.756;23.130;2023-04-24T11:39:02;157954.88;;;21.44;49.61
11888;BME280;6003;42.756;23.130;2023-04-24T11:41:29;157929.47;;;21.34;49.21
11888;BME280;6003;42.756;23.130;2023-04-24T11:43:57;157916.19;;;21.29;51.13
11888;BME280;6003;42.756;23.130;2023-04-24T11:46:27;157956.19;;;21.45;51.50
11888;BME280;6003;42.756;23.130;2023-04-24T11:48:54;157982.81;;;21.55;51.70
11888;BME280;6003;42.756;23.130;2023-04-24T11:51:23;157965.50;;;21.48;51.53
11888;BME280;6003;42.756;23.130;2023-04-24T11:53:51;157986.84;;;21.56;56.05
11888;BME280;6003;42.756;23.130;2023-04-24T11:56:18;158050.81;;;21.81;54.21
11888;BME280;6003;42.756;23.130;2023-04-24T11:58:45;158100.09;;;22.00;53.14
11888;BME280;6003;42.756;23.130;2023-04-24T12:01:13;158081.47;;;21.93;50.76
11888;BME280;6003;42.756;23.130;2023-04-24T12:03:40;157988.16;;;21.57;50.72
11888;BME280;6003;42.756;23.130;2023-04-24T12:06:10;157840.22;;;21.00;54.35
11888;BME280;6003;42.756;23.130;2023-04-24T12:08:39;157813.59;;;20.90;56.65
11888;BME280;6003;42.756;23.130;2023-04-24T12:11:06;157808.25;;;20.88;56.57
11888;BME280;6003;42.756;23.130;2023-04-24T12:13:34;157776.31;;;20.76;55.96
11888;BME280;6003;42.756;23.130;2023-04-24T12:16:02;157736.38;;;20.60;54.21
11888;BME280;6003;42.756;23.130;2023-04-24T12:18:30;157712.31;;;20.51;55.64
11888;BME280;6003;42.756;23.130;2023-04-24T12:21:15;157645.78;;;20.25;56.56
11888;BME280;6003;42.756;23.130;2023-04-24T12:23:44;157624.50;;;20.17;56.84
11888;BME280;6003;42.756;23.130;2023-04-24T12:26:11;157663.09;;;20.32;56.27
11888;BME280;6003;42.756;23.130;2023-04-24T12:28:38;157736.38;;;20.60;57.43
11888;BME280;6003;42.756;23.130;2023-04-24T12:31:06;157846.88;;;21.03;57.18
11888;BME280;6003;42.756;23.130;2023-04-24T12:33:34;157920.16;;;21.31;54.87
11888;BME280;6003;42.756;23.130;2023-04-24T12:36:02;157957.53;;;21.45;53.69
11888;BME280;6003;42.756;23.130;2023-04-24T12:38:29;157977.50;;;21.53;52.51
11888;BME280;6003;42.756;23.130;2023-04-24T12:41:05;157960.16;;;21.46;52.12
11888;BME280;6003;42.756;23.130;2023-04-24T12:43:33;157990.84;;;21.58;51.75
11888;BME280;6003;42.756;23.130;2023-04-24T12:46:00;158010.81;;;21.66;51.64
11888;BME280;6003;42.756;23.130;2023-04-24T12:48:27;157989.47;;;21.57;51.08
11888;BME280;6003;42.756;23.130;2023-04-24T12:50:54;158029.50;;;21.73;51.32
11888;BME280;6003;42.756;23.130;2023-04-24T12:53:22;158030.81;;;21.73;49.30
11888;BME280;6003;42.756;23.130;2023-04-24T12:55:48;158049.44;;;21.80;50.37
11888;BME280;6003;42.756;23.130;2023-04-24T12:58:20;158080.09;;;21.92;51.86
11888;BME280;6003;42.756;23.130;2023-04-24T13:00:47;158088.13;;;21.95;51.46
11888;BME280;6003;42.756;23.130;2023-04-24T13:03:14;158082.78;;;21.93;53.63